sensor_id;sensor_type;location;lat;lon;timestamp;pressure;altitude;pressure_sealevel;temperature;humidity
51321;BME280;38732;49.556;6.286;2023-01-15T00:02:02;98254.69;;;10.78;100.00
51321;BME280;38732;49.556;6.286;2023-01-15T00:04:30;98243.25;;;11.68;100.00
51321;BME280;38732;49.556;6.286;2023-01-15T00:06:59;98229.47;;;11.67;100.00
51321;BME280;38732;49.556;6.286;2023-01-15T00:09:27;98228.91;;;11.92;100.00
51321;BME280;38732;49.556;6.286;2023-01-15T00:11:55;98222.63;;;12.00;100.00
51321;BME280;38732;49.556;6.286;2023-01-15T00:14:23;98234.09;;;10.33;100.00
51321;BME280;38732;49.556;6.286;2023-01-15T00:16:52;98224.69;;;11.50;100.00
51321;BME280;38732;49.556;6.286;2023-01-15T00:19:20;98223.97;;;11.81;100.00
51321;BME280;38732;49.556;6.286;2023-01-15T00:21:48;98224.94;;;10.62;100.00
51321;BME280;38732;49.556;6.286;2023-01-15T00:24:17;98229.75;;;11.19;100.00
51321;BME280;38732;49.556;6.286;2023-01-15T00:26:45;98238.75;;;11.76;100.00
51321;BME280;38732;49.556;6.286;2023-01-15T00:29:14;98236.75;;;11.89;100.00
51321;BME280;38732;49.556;6.286;2023-01-15T00:31:43;98235.75;;;11.93;100.00
51321;BME280;38732;49.556;6.286;2023-01-15T00:34:12;98241.69;;;11.23;100.00
51321;BME280;38732;49.556;6.286;2023-01-15T00:36:40;98244.50;;;10.72;100.00
51321;BME280;38732;49.556;6.286;2023-01-15T00:39:09;98241.66;;;11.62;100.00
51321;BME280;38732;49.556;6.286;2023-01-15T00:41:37;98251.78;;;10.95;100.00
51321;BME280;38732;49.556;6.286;2023-01-15T00:44:05;98257.06;;;11.29;100.00
51321;BME280;38732;49.556;6.286;2023-01-15T00:46:33;98254.69;;;11.57;100.00
51321;BME280;38732;49.556;6.286;2023-01-15T00:49:02;98262.09;;;10.95;100.00
51321;BME280;38732;49.556;6.286;2023-01-15T00:51:31;98265.38;;;11.42;100.00
51321;BME280;38732;49.556;6.286;2023-01-15T00:53:59;98266.00;;;11.53;100.00
51321;BME280;38732;49.556;6.286;2023-01-15T00:56:28;98271.84;;;10.82;100.00
51321;BME280;38732;49.556;6.286;2023-01-15T00:58:56;98279.59;;;11.22;100.00
51321;BME280;38732;49.556;6.286;2023-01-15T01:01:25;98285.59;;;11.23;100.00
51321;BME280;38732;49.556;6.286;2023-01-15T01:03:53;98282.75;;;11.35;100.00
51321;BME280;38732;49.556;6.286;2023-01-15T01:06:21;98290.66;;;11.29;100.00
51321;BME280;38732;49.556;6.286;2023-01-15T01:08:49;98304.22;;;11.39;100.00
51321;BME280;38732;49.556;6.286;2023-01-15T01:11:21;98296.38;;;11.43;100.00
51321;BME280;38732;49.556;6.286;2023-01-15T01:13:49;98309.75;;;11.23;100.00
51321;BME280;38732;49.556;6.286;2023-01-15T01:16:33;98321.25;;;11.07;100.00
51321;BME280;38732;49.556;6.286;2023-01-15T01:21:36;98321.50;;;10.95;100.00
51321;BME280;38732;49.556;6.286;2023-01-15T01:24:06;98327.13;;;11.15;100.00
51321;BME280;38732;49.556;6.286;2023-01-15T01:26:34;98335.44;;;10.41;100.00
51321;BME280;38732;49.556;6.286;2023-01-15T01:29:03;98335.25;;;10.97;100.00
51321;BME280;38732;49.556;6.286;2023-01-15T01:31:31;98331.69;;;11.02;100.00
51321;BME280;38732;49.556;6.286;2023-01-15T01:34:00;98326.50;;;11.04;100.00
51321;BME280;38732;49.556;6.286;2023-01-15T01:36:33;98324.91;;;10.98;100.00
51321;BME280;38732;49.556;6.286;2023-01-15T01:39:03;98318.75;;;11.04;99.17
51321;BME280;38732;49.556;6.286;2023-01-15T01:41:32;98330.00;;;11.00;100.00
51321;BME280;38732;49.556;6.286;2023-01-15T01:46:35;98336.00;;;10.58;100.00
51321;BME280;38732;49.556;6.286;2023-01-15T01:49:08;98330.06;;;10.53;100.00
51321;BME280;38732;49.556;6.286;2023-01-15T01:51:42;98337.06;;;10.45;100.00
51321;BME280;38732;49.556;6.286;2023-01-15T01:54:13;98333.81;;;9.81;100.00
51321;BME280;38732;49.556;6.286;2023-01-15T01:56:43;98341.38;;;9.32;100.00
51321;BME280;38732;49.556;6.286;2023-01-15T01:59:12;98333.56;;;9.38;100.00
51321;BME280;38732;49.556;6.286;2023-01-15T02:01:40;98335.44;;;9.85;100.00
51321;BME280;38732;49.556;6.286;2023-01-15T02:04:09;98332.00;;;9.27;100.00
51321;BME280;38732;49.556;6.286;2023-01-15T02:06:40;98326.88;;;9.86;100.00
51321;BME280;38732;49.556;6.286;2023-01-15T02:09:09;98332.34;;;10.18;100.00
51321;BME280;38732;49.556;6.286;2023-01-15T02:11:37;98341.38;;;9.32;100.00
51321;BME280;38732;49.556;6.286;2023-01-15T02:14:20;98350.19;;;8.30;100.00
51321;BME280;38732;49.556;6.286;2023-01-15T02:17:00;98354.91;;;9.46;100.00
51321;BME280;38732;49.556;6.286;2023-01-15T02:19:39;98348.28;;;9.90;100.00
51321;BME280;38732;49.556;6.286;2023-01-15T02:22:28;98351.97;;;9.74;100.00
51321;BME280;38732;49.556;6.286;2023-01-15T02:25:16;98341.44;;;9.89;100.00
51321;BME280;38732;49.556;6.286;2023-01-15T02:27:48;98353.53;;;10.40;100.00
51321;BME280;38732;49.556;6.286;2023-01-15T02:30:27;98370.19;;;10.17;100.00
51321;BME280;38732;49.556;6.286;2023-01-15T02:33:04;98359.38;;;10.48;100.00
51321;BME280;38732;49.556;6.286;2023-01-15T02:35:50;98362.28;;;9.74;100.00
51321;BME280;38732;49.556;6.286;2023-01-15T02:38:21;98365.34;;;9.97;100.00
51321;BME280;38732;49.556;6.286;2023-01-15T02:40:55;98369.00;;;10.41;100.00
51321;BME280;38732;49.556;6.286;2023-01-15T02:43:26;98370.66;;;10.44;100.00
51321;BME280;38732;49.556;6.286;2023-01-15T02:45:57;98367.88;;;10.54;100.00
51321;BME280;38732;49.556;6.286;2023-01-15T02:48:29;98378.72;;;10.21;100.00
51321;BME280;38732;49.556;6.286;2023-01-15T02:51:09;98373.56;;;10.21;100.00
51321;BME280;38732;49.556;6.286;2023-01-15T02:53:42;98372.59;;;10.31;100.00
51321;BME280;38732;49.556;6.286;2023-01-15T02:56:17;98370.63;;;8.50;100.00
51321;BME280;38732;49.556;6.286;2023-01-15T02:58:49;98364.16;;;8.00;100.00
51321;BME280;38732;49.556;6.286;2023-01-15T03:01:24;98378.28;;;7.24;100.00
51321;BME280;38732;49.556;6.286;2023-01-15T03:03:58;98379.97;;;7.32;100.00
51321;BME280;38732;49.556;6.286;2023-01-15T03:06:45;98378.19;;;7.51;100.00
51321;BME280;38732;49.556;6.286;2023-01-15T03:09:17;98387.63;;;7.45;100.00
51321;BME280;38732;49.556;6.286;2023-01-15T03:11:50;98390.41;;;6.94;100.00
51321;BME280;38732;49.556;6.286;2023-01-15T03:14:43;98401.31;;;7.47;100.00
51321;BME280;38732;49.556;6.286;2023-01-15T03:17:20;98397.78;;;7.69;100.00
51321;BME280;38732;49.556;6.286;2023-01-15T03:19:52;98408.31;;;7.06;100.00
51321;BME280;38732;49.556;6.286;2023-01-15T03:22:30;98402.72;;;8.02;100.00
51321;BME280;38732;49.556;6.286;2023-01-15T03:25:06;98402.19;;;8.66;100.00
51321;BME280;38732;49.556;6.286;2023-01-15T03:27:36;98399.03;;;8.30;100.00
51321;BME280;38732;49.556;6.286;2023-01-15T03:30:11;98392.06;;;9.31;100.00
51321;BME280;38732;49.556;6.286;2023-01-15T03:32:40;98392.72;;;9.47;100.00
51321;BME280;38732;49.556;6.286;2023-01-15T03:35:48;98394.78;;;9.19;100.00
51321;BME280;38732;49.556;6.286;2023-01-15T03:38:24;98389.44;;;9.34;100.00
51321;BME280;38732;49.556;6.286;2023-01-15T03:41:21;98385.78;;;9.50;100.00
51321;BME280;38732;49.556;6.286;2023-01-15T03:49:24;98403.91;;;8.67;100.00
51321;BME280;38732;49.556;6.286;2023-01-15T03:52:01;98416.00;;;7.11;100.00
51321;BME280;38732;49.556;6.286;2023-01-15T03:54:55;98410.31;;;8.15;100.00
51321;BME280;38732;49.556;6.286;2023-01-15T04:00:24;98413.56;;;8.36;100.00
51321;BME280;38732;49.556;6.286;2023-01-15T04:02:55;98415.19;;;8.54;100.00
51321;BME280;38732;49.556;6.286;2023-01-15T04:05:25;98409.97;;;8.58;100.00
51321;BME280;38732;49.556;6.286;2023-01-15T04:07:55;98426.28;;;7.06;100.00
51321;BME280;38732;49.556;6.286;2023-01-15T04:10:24;98425.22;;;7.58;100.00
51321;BME280;38732;49.556;6.286;2023-01-15T04:12:52;98404.81;;;8.60;100.00
51321;BME280;38732;49.556;6.286;2023-01-15T04:15:21;98408.31;;;7.14;100.00
51321;BME280;38732;49.556;6.286;2023-01-15T04:17:49;98415.19;;;6.97;100.00
51321;BME280;38732;49.556;6.286;2023-01-15T04:20:17;98412.38;;;7.60;100.00
51321;BME280;38732;49.556;6.286;2023-01-15T04:22:45;98419.50;;;6.82;100.00
51321;BME280;38732;49.556;6.286;2023-01-15T04:25:14;98424.63;;;6.76;100.00
51321;BME280;38732;49.556;6.286;2023-01-15T04:27:42;98430.63;;;6.46;100.00
51321;BME280;38732;49.556;6.286;2023-01-15T04:30:10;98432.34;;;6.79;100.00
51321;BME280;38732;49.556;6.286;2023-01-15T04:32:38;98427.94;;;7.20;100.00
51321;BME280;38732;49.556;6.286;2023-01-15T04:35:07;98448.50;;;7.17;100.00
51321;BME280;38732;49.556;6.286;2023-01-15T04:37:35;98433.59;;;7.91;100.00
51321;BME280;38732;49.556;6.286;2023-01-15T04:40:04;98444.22;;;7.12;100.00
51321;BME280;38732;49.556;6.286;2023-01-15T04:42:32;98435.72;;;5.92;100.00
51321;BME280;38732;49.556;6.286;2023-01-15T04:45:01;98447.53;;;5.56;100.00
51321;BME280;38732;49.556;6.286;2023-01-15T04:47:30;98449.41;;;5.97;100.00
51321;BME280;38732;49.556;6.286;2023-01-15T04:49:58;98455.44;;;6.35;100.00
51321;BME280;38732;49.556;6.286;2023-01-15T04:52:26;98438.31;;;5.98;100.00
51321;BME280;38732;49.556;6.286;2023-01-15T04:54:54;98436.63;;;6.25;100.00
51321;BME280;38732;49.556;6.286;2023-01-15T04:57:23;98430.56;;;5.91;100.00
51321;BME280;38732;49.556;6.286;2023-01-15T04:59:51;98430.63;;;6.08;100.00
51321;BME280;38732;49.556;6.286;2023-01-15T05:02:19;98427.22;;;6.56;100.00
51321;BME280;38732;49.556;6.286;2023-01-15T05:04:47;98434.06;;;6.22;100.00
51321;BME280;38732;49.556;6.286;2023-01-15T05:07:15;98438.31;;;6.04;100.00
51321;BME280;38732;49.556;6.286;2023-01-15T05:09:43;98443.38;;;5.91;100.00
51321;BME280;38732;49.556;6.286;2023-01-15T05:12:12;98445.81;;;5.51;100.00
51321;BME280;38732;49.556;6.286;2023-01-15T05:14:40;98437.38;;;5.78;100.00
51321;BME280;38732;49.556;6.286;2023-01-15T05:17:08;98439.88;;;5.52;100.00
51321;BME280;38732;49.556;6.286;2023-01-15T05:19:36;98437.34;;;5.62;100.00
51321;BME280;38732;49.556;6.286;2023-01-15T05:22:04;98438.00;;;5.22;100.00
51321;BME280;38732;49.556;6.286;2023-01-15T05:24:33;98449.16;;;5.30;100.00
51321;BME280;38732;49.556;6.286;2023-01-15T05:27:01;98456.97;;;5.60;100.00
51321;BME280;38732;49.556;6.286;2023-01-15T05:29:29;98456.22;;;6.94;100.00
51321;BME280;38732;49.556;6.286;2023-01-15T05:31:57;98453.72;;;6.09;100.00
51321;BME280;38732;49.556;6.286;2023-01-15T05:34:26;98458.50;;;5.23;100.00
51321;BME280;38732;49.556;6.286;2023-01-15T05:36:54;98453.56;;;5.68;100.00
51321;BME280;38732;49.556;6.286;2023-01-15T05:39:22;98462.59;;;4.90;100.00
51321;BME280;38732;49.556;6.286;2023-01-15T05:41:50;98474.56;;;4.97;100.00
51321;BME280;38732;49.556;6.286;2023-01-15T05:44:24;98467.94;;;5.33;100.00
51321;BME280;38732;49.556;6.286;2023-01-15T05:46:58;98469.00;;;5.92;100.00
51321;BME280;38732;49.556;6.286;2023-01-15T05:49:27;98481.88;;;6.03;100.00
51321;BME280;38732;49.556;6.286;2023-01-15T05:51:57;98475.88;;;5.96;100.00
51321;BME280;38732;49.556;6.286;2023-01-15T05:54:29;98482.78;;;6.68;100.00
51321;BME280;38732;49.556;6.286;2023-01-15T05:56:57;98489.63;;;6.74;100.00
51321;BME280;38732;49.556;6.286;2023-01-15T05:59:27;98486.09;;;7.24;100.00
51321;BME280;38732;49.556;6.286;2023-01-15T06:01:56;98482.56;;;7.59;100.00
51321;BME280;38732;49.556;6.286;2023-01-15T06:04:25;98469.34;;;8.32;100.00
51321;BME280;38732;49.556;6.286;2023-01-15T06:06:54;98461.63;;;8.32;100.00
51321;BME280;38732;49.556;6.286;2023-01-15T06:09:23;98466.84;;;8.18;100.00
51321;BME280;38732;49.556;6.286;2023-01-15T06:11:52;98481.00;;;7.16;100.00
51321;BME280;38732;49.556;6.286;2023-01-15T06:14:20;98476.34;;;8.07;100.00
51321;BME280;38732;49.556;6.286;2023-01-15T06:16:48;98496.44;;;6.98;100.00
51321;BME280;38732;49.556;6.286;2023-01-15T06:19:17;98499.03;;;6.82;100.00
51321;BME280;38732;49.556;6.286;2023-01-15T06:21:45;98510.06;;;7.30;100.00
51321;BME280;38732;49.556;6.286;2023-01-15T06:24:13;98523.78;;;6.33;100.00
51321;BME280;38732;49.556;6.286;2023-01-15T06:26:41;98526.38;;;6.56;100.00
51321;BME280;38732;49.556;6.286;2023-01-15T06:29:09;98505.69;;;7.65;100.00
51321;BME280;38732;49.556;6.286;2023-01-15T06:31:38;98520.34;;;6.09;100.00
51321;BME280;38732;49.556;6.286;2023-01-15T06:34:06;98524.47;;;5.82;100.00
51321;BME280;38732;49.556;6.286;2023-01-15T06:36:34;98504.09;;;7.27;100.00
51321;BME280;38732;49.556;6.286;2023-01-15T06:39:02;98510.97;;;6.25;100.00
51321;BME280;38732;49.556;6.286;2023-01-15T06:41:31;98504.72;;;7.86;100.00
51321;BME280;38732;49.556;6.286;2023-01-15T06:43:59;98504.53;;;8.24;100.00
51321;BME280;38732;49.556;6.286;2023-01-15T06:46:27;98515.75;;;8.06;100.00
51321;BME280;38732;49.556;6.286;2023-01-15T06:48:55;98532.72;;;8.44;100.00
51321;BME280;38732;49.556;6.286;2023-01-15T06:51:23;98539.16;;;7.42;100.00
51321;BME280;38732;49.556;6.286;2023-01-15T06:53:52;98531.13;;;8.21;100.00
51321;BME280;38732;49.556;6.286;2023-01-15T06:56:20;98543.00;;;8.38;100.00
51321;BME280;38732;49.556;6.286;2023-01-15T06:58:48;98533.50;;;8.57;100.00
51321;BME280;38732;49.556;6.286;2023-01-15T07:01:16;98543.38;;;7.63;100.00
51321;BME280;38732;49.556;6.286;2023-01-15T07:03:44;98539.03;;;7.82;100.00
51321;BME280;38732;49.556;6.286;2023-01-15T07:06:13;98532.94;;;7.99;100.00
51321;BME280;38732;49.556;6.286;2023-01-15T07:08:41;98530.66;;;6.75;100.00
51321;BME280;38732;49.556;6.286;2023-01-15T07:11:09;98535.75;;;7.35;100.00
51321;BME280;38732;49.556;6.286;2023-01-15T07:13:37;98531.47;;;7.42;100.00
51321;BME280;38732;49.556;6.286;2023-01-15T07:16:05;98527.84;;;7.86;100.00
51321;BME280;38732;49.556;6.286;2023-01-15T07:18:35;98534.00;;;7.54;100.00
51321;BME280;38732;49.556;6.286;2023-01-15T07:21:03;98530.34;;;8.03;100.00
51321;BME280;38732;49.556;6.286;2023-01-15T07:23:31;98538.31;;;7.27;100.00
51321;BME280;38732;49.556;6.286;2023-01-15T07:25:59;98535.78;;;7.15;100.00
51321;BME280;38732;49.556;6.286;2023-01-15T07:28:28;98544.00;;;5.57;100.00
51321;BME280;38732;49.556;6.286;2023-01-15T07:30:57;98541.78;;;6.91;100.00
51321;BME280;38732;49.556;6.286;2023-01-15T07:33:25;98545.19;;;6.81;100.00
51321;BME280;38732;49.556;6.286;2023-01-15T07:35:53;98538.34;;;6.54;100.00
51321;BME280;38732;49.556;6.286;2023-01-15T07:38:22;98541.75;;;6.45;100.00
51321;BME280;38732;49.556;6.286;2023-01-15T07:40:50;98549.25;;;5.91;100.00
51321;BME280;38732;49.556;6.286;2023-01-15T07:43:18;98556.66;;;5.30;100.00
51321;BME280;38732;49.556;6.286;2023-01-15T07:45:47;98563.47;;;5.28;100.00
51321;BME280;38732;49.556;6.286;2023-01-15T07:48:16;98561.44;;;6.67;100.00
51321;BME280;38732;49.556;6.286;2023-01-15T07:50:44;98569.16;;;6.84;100.00
51321;BME280;38732;49.556;6.286;2023-01-15T07:53:12;98586.16;;;6.30;100.00
51321;BME280;38732;49.556;6.286;2023-01-15T07:55:40;98597.34;;;7.46;100.00
51321;BME280;38732;49.556;6.286;2023-01-15T07:58:09;98593.09;;;6.99;100.00
51321;BME280;38732;49.556;6.286;2023-01-15T08:00:37;98606.63;;;6.24;100.00
51321;BME280;38732;49.556;6.286;2023-01-15T08:03:05;98603.25;;;6.30;100.00
51321;BME280;38732;49.556;6.286;2023-01-15T08:05:33;98604.13;;;6.41;100.00
51321;BME280;38732;49.556;6.286;2023-01-15T08:08:01;98601.66;;;7.05;100.00
51321;BME280;38732;49.556;6.286;2023-01-15T08:10:30;98599.94;;;7.13;100.00
51321;BME280;38732;49.556;6.286;2023-01-15T08:12:58;98599.69;;;8.23;100.00
51321;BME280;38732;49.556;6.286;2023-01-15T08:15:30;98609.75;;;8.67;100.00
51321;BME280;38732;49.556;6.286;2023-01-15T08:17:59;98614.97;;;8.53;100.00
51321;BME280;38732;49.556;6.286;2023-01-15T08:20:27;98633.63;;;8.94;100.00
51321;BME280;38732;49.556;6.286;2023-01-15T08:22:55;98641.34;;;8.92;99.70
51321;BME280;38732;49.556;6.286;2023-01-15T08:25:24;98635.31;;;8.93;95.18
51321;BME280;38732;49.556;6.286;2023-01-15T08:27:53;98658.13;;;6.98;100.00
51321;BME280;38732;49.556;6.286;2023-01-15T08:30:24;98665.81;;;7.04;100.00
51321;BME280;38732;49.556;6.286;2023-01-15T08:32:58;98676.78;;;6.41;100.00
51321;BME280;38732;49.556;6.286;2023-01-15T08:35:26;98669.28;;;7.56;100.00
51321;BME280;38732;49.556;6.286;2023-01-15T08:37:55;98690.66;;;7.55;100.00
51321;BME280;38732;49.556;6.286;2023-01-15T08:40:23;98714.56;;;6.90;100.00
51321;BME280;38732;49.556;6.286;2023-01-15T08:42:52;98706.69;;;6.38;100.00
51321;BME280;38732;49.556;6.286;2023-01-15T08:45:21;98701.91;;;5.61;100.00
51321;BME280;38732;49.556;6.286;2023-01-15T08:47:49;98702.69;;;5.48;100.00
51321;BME280;38732;49.556;6.286;2023-01-15T08:50:21;98698.03;;;6.14;100.00
51321;BME280;38732;49.556;6.286;2023-01-15T08:52:49;98709.47;;;7.10;99.10
51321;BME280;38732;49.556;6.286;2023-01-15T08:55:17;98714.53;;;6.72;100.00
51321;BME280;38732;49.556;6.286;2023-01-15T08:57:47;98724.84;;;5.46;100.00
51321;BME280;38732;49.556;6.286;2023-01-15T09:00:15;98724.13;;;5.64;100.00
51321;BME280;38732;49.556;6.286;2023-01-15T09:02:44;98732.63;;;5.57;100.00
51321;BME280;38732;49.556;6.286;2023-01-15T09:05:12;98708.38;;;6.39;100.00
51321;BME280;38732;49.556;6.286;2023-01-15T09:07:40;98717.59;;;6.03;100.00
51321;BME280;38732;49.556;6.286;2023-01-15T09:10:09;98725.06;;;4.10;100.00
51321;BME280;38732;49.556;6.286;2023-01-15T09:12:37;98689.69;;;5.25;100.00
51321;BME280;38732;49.556;6.286;2023-01-15T09:15:05;98705.56;;;4.17;100.00
51321;BME280;38732;49.556;6.286;2023-01-15T09:17:34;98706.72;;;5.22;100.00
51321;BME280;38732;49.556;6.286;2023-01-15T09:20:02;98703.41;;;5.32;100.00
51321;BME280;38732;49.556;6.286;2023-01-15T09:22:30;98709.44;;;5.41;100.00
51321;BME280;38732;49.556;6.286;2023-01-15T09:24:59;98710.34;;;5.48;100.00
51321;BME280;38732;49.556;6.286;2023-01-15T09:27:27;98728.66;;;4.98;100.00
51321;BME280;38732;49.556;6.286;2023-01-15T09:29:56;98711.38;;;5.67;100.00
51321;BME280;38732;49.556;6.286;2023-01-15T09:32:24;98697.31;;;6.43;100.00
51321;BME280;38732;49.556;6.286;2023-01-15T09:34:52;98702.91;;;5.80;100.00
51321;BME280;38732;49.556;6.286;2023-01-15T09:37:20;98706.38;;;5.89;100.00
51321;BME280;38732;49.556;6.286;2023-01-15T09:39:48;98716.34;;;5.49;100.00
51321;BME280;38732;49.556;6.286;2023-01-15T09:42:33;98710.94;;;6.33;100.00
51321;BME280;38732;49.556;6.286;2023-01-15T09:45:14;98708.13;;;5.93;100.00
51321;BME280;38732;49.556;6.286;2023-01-15T09:48:02;98717.84;;;6.49;99.80
51321;BME280;38732;49.556;6.286;2023-01-15T09:50:46;98723.66;;;5.09;100.00
51321;BME280;38732;49.556;6.286;2023-01-15T09:53:32;98718.59;;;6.25;100.00
51321;BME280;38732;49.556;6.286;2023-01-15T09:56:03;98719.63;;;5.32;100.00
51321;BME280;38732;49.556;6.286;2023-01-15T09:58:34;98725.78;;;5.54;100.00
51321;BME280;38732;49.556;6.286;2023-01-15T10:01:04;98725.06;;;5.72;100.00
51321;BME280;38732;49.556;6.286;2023-01-15T10:03:44;98740.91;;;5.31;100.00
51321;BME280;38732;49.556;6.286;2023-01-15T10:08:50;98732.00;;;5.89;100.00
51321;BME280;38732;49.556;6.286;2023-01-15T10:11:25;98736.53;;;6.28;100.00
51321;BME280;38732;49.556;6.286;2023-01-15T10:14:05;98742.53;;;5.17;100.00
51321;BME280;38732;49.556;6.286;2023-01-15T10:16:37;98752.94;;;5.38;100.00
51321;BME280;38732;49.556;6.286;2023-01-15T10:19:07;98738.94;;;5.97;100.00
51321;BME280;38732;49.556;6.286;2023-01-15T10:21:59;98751.38;;;5.53;100.00
51321;BME280;38732;49.556;6.286;2023-01-15T10:24:46;98755.25;;;6.10;100.00
51321;BME280;38732;49.556;6.286;2023-01-15T10:27:21;98778.97;;;5.88;100.00
51321;BME280;38732;49.556;6.286;2023-01-15T10:32:54;98770.53;;;5.98;100.00
51321;BME280;38732;49.556;6.286;2023-01-15T10:35:53;98778.28;;;6.05;100.00
51321;BME280;38732;49.556;6.286;2023-01-15T10:38:49;98777.28;;;5.93;100.00
51321;BME280;38732;49.556;6.286;2023-01-15T10:44:23;98774.19;;;6.41;100.00
51321;BME280;38732;49.556;6.286;2023-01-15T10:46:58;98777.81;;;6.80;100.00
51321;BME280;38732;49.556;6.286;2023-01-15T10:49:29;98780.44;;;6.99;100.00
51321;BME280;38732;49.556;6.286;2023-01-15T10:52:06;98785.53;;;6.85;99.45
51321;BME280;38732;49.556;6.286;2023-01-15T10:54:42;98766.66;;;6.74;98.71
51321;BME280;38732;49.556;6.286;2023-01-15T10:57:27;98776.88;;;6.58;100.00
51321;BME280;38732;49.556;6.286;2023-01-15T11:00:00;98772.66;;;6.66;97.52
51321;BME280;38732;49.556;6.286;2023-01-15T11:02:57;98774.28;;;6.49;97.35
51321;BME280;38732;49.556;6.286;2023-01-15T11:05:25;98764.03;;;6.52;98.95
51321;BME280;38732;49.556;6.286;2023-01-15T11:07:54;98759.75;;;6.54;96.33
51321;BME280;38732;49.556;6.286;2023-01-15T11:10:22;98775.19;;;6.62;94.29
51321;BME280;38732;49.556;6.286;2023-01-15T11:12:54;98777.03;;;7.03;95.44
51321;BME280;38732;49.556;6.286;2023-01-15T11:15:24;98780.41;;;6.91;93.13
51321;BME280;38732;49.556;6.286;2023-01-15T11:17:53;98775.31;;;6.99;94.46
51321;BME280;38732;49.556;6.286;2023-01-15T11:22:55;98777.97;;;7.26;88.01
51321;BME280;38732;49.556;6.286;2023-01-15T11:25:27;98766.00;;;7.88;87.95
51321;BME280;38732;49.556;6.286;2023-01-15T11:27:59;98783.13;;;7.40;87.67
51321;BME280;38732;49.556;6.286;2023-01-15T11:30:30;98772.84;;;7.34;87.77
51321;BME280;38732;49.556;6.286;2023-01-15T11:33:01;98774.47;;;7.06;89.47
51321;BME280;38732;49.556;6.286;2023-01-15T11:35:31;98771.06;;;7.02;89.85
51321;BME280;38732;49.556;6.286;2023-01-15T11:38:12;98774.56;;;7.29;87.38
51321;BME280;38732;49.556;6.286;2023-01-15T11:40:52;98784.78;;;7.09;89.17
51321;BME280;38732;49.556;6.286;2023-01-15T11:43:22;98776.06;;;6.67;90.28
51321;BME280;38732;49.556;6.286;2023-01-15T11:45:51;98753.00;;;6.72;89.99
51321;BME280;38732;49.556;6.286;2023-01-15T11:48:22;98753.63;;;6.26;91.38
51321;BME280;38732;49.556;6.286;2023-01-15T11:51:03;98764.88;;;6.53;92.50
51321;BME280;38732;49.556;6.286;2023-01-15T11:53:38;98751.84;;;6.16;92.92
51321;BME280;38732;49.556;6.286;2023-01-15T11:56:11;98748.78;;;6.89;93.25
51321;BME280;38732;49.556;6.286;2023-01-15T11:58:55;98752.91;;;6.53;91.85
51321;BME280;38732;49.556;6.286;2023-01-15T12:01:32;98755.69;;;7.15;90.15
51321;BME280;38732;49.556;6.286;2023-01-15T12:04:06;98747.00;;;6.76;87.00
51321;BME280;38732;49.556;6.286;2023-01-15T12:06:36;98743.75;;;7.61;86.91
51321;BME280;38732;49.556;6.286;2023-01-15T12:12:26;98742.88;;;7.41;87.51
51321;BME280;38732;49.556;6.286;2023-01-15T12:15:30;98739.44;;;8.05;86.67
51321;BME280;38732;49.556;6.286;2023-01-15T12:21:02;98747.19;;;7.62;82.81
51321;BME280;38732;49.556;6.286;2023-01-15T12:26:51;98734.22;;;6.85;84.09
51321;BME280;38732;49.556;6.286;2023-01-15T12:29:45;98741.03;;;6.78;86.79
51321;BME280;38732;49.556;6.286;2023-01-15T12:32:23;98729.06;;;6.83;87.84
51321;BME280;38732;49.556;6.286;2023-01-15T12:35:04;98722.25;;;6.82;87.84
51321;BME280;38732;49.556;6.286;2023-01-15T12:37:55;98725.63;;;6.74;89.15
51321;BME280;38732;49.556;6.286;2023-01-15T12:40:30;98729.09;;;6.85;92.82
51321;BME280;38732;49.556;6.286;2023-01-15T12:43:00;98730.59;;;6.34;91.77
51321;BME280;38732;49.556;6.286;2023-01-15T12:45:32;98739.16;;;6.34;90.96
51321;BME280;38732;49.556;6.286;2023-01-15T12:48:11;98734.78;;;6.21;90.66
51321;BME280;38732;49.556;6.286;2023-01-15T12:50:52;98732.44;;;6.65;90.05
51321;BME280;38732;49.556;6.286;2023-01-15T12:53:38;98725.72;;;7.18;94.51
51321;BME280;38732;49.556;6.286;2023-01-15T12:56:19;98734.31;;;7.14;88.51
51321;BME280;38732;49.556;6.286;2023-01-15T12:59:09;98731.69;;;6.99;90.60
51321;BME280;38732;49.556;6.286;2023-01-15T13:04:23;98723.97;;;6.82;87.30
51321;BME280;38732;49.556;6.286;2023-01-15T13:07:04;98724.91;;;7.27;87.10
51321;BME280;38732;49.556;6.286;2023-01-15T13:09:43;98712.88;;;7.04;86.44
51321;BME280;38732;49.556;6.286;2023-01-15T13:12:14;98725.63;;;6.72;87.34
51321;BME280;38732;49.556;6.286;2023-01-15T13:14:43;98721.44;;;7.05;85.63
51321;BME280;38732;49.556;6.286;2023-01-15T13:26:02;98723.16;;;7.07;83.83
51321;BME280;38732;49.556;6.286;2023-01-15T13:34:02;98717.88;;;6.57;86.79
51321;BME280;38732;49.556;6.286;2023-01-15T13:36:41;98723.13;;;6.90;86.26
51321;BME280;38732;49.556;6.286;2023-01-15T13:39:21;98716.25;;;6.74;88.72
51321;BME280;38732;49.556;6.286;2023-01-15T13:41:52;98718.66;;;6.37;90.96
51321;BME280;38732;49.556;6.286;2023-01-15T13:44:30;98707.53;;;6.41;90.49
51321;BME280;38732;49.556;6.286;2023-01-15T13:47:06;98711.75;;;6.29;87.28
51321;BME280;38732;49.556;6.286;2023-01-15T13:49:39;98722.00;;;6.29;89.49
51321;BME280;38732;49.556;6.286;2023-01-15T13:52:35;98712.59;;;6.20;88.36
51321;BME280;38732;49.556;6.286;2023-01-15T13:55:12;98716.78;;;6.07;89.27
51321;BME280;38732;49.556;6.286;2023-01-15T13:57:46;98726.28;;;6.28;89.04
51321;BME280;38732;49.556;6.286;2023-01-15T14:00:34;98731.44;;;6.33;88.55
51321;BME280;38732;49.556;6.286;2023-01-15T14:03:27;98720.38;;;6.46;89.47
51321;BME280;38732;49.556;6.286;2023-01-15T14:05:58;98738.28;;;6.29;87.61
51321;BME280;38732;49.556;6.286;2023-01-15T14:08:36;98732.25;;;6.29;90.63
51321;BME280;38732;49.556;6.286;2023-01-15T14:11:26;98732.41;;;6.55;89.47
51321;BME280;38732;49.556;6.286;2023-01-15T14:14:08;98745.25;;;6.61;89.67
51321;BME280;38732;49.556;6.286;2023-01-15T14:19:40;98737.41;;;6.27;91.62
51321;BME280;38732;49.556;6.286;2023-01-15T14:28:06;98746.78;;;6.22;95.94